sensor_id;sensor_type;location;lat;lon;timestamp;temperature;humidity
6421;DHT22;3243;50.958;7.012;2022-09-21T00:01:16;9.40;99.90
6421;DHT22;3243;50.958;7.012;2022-09-21T00:03:44;9.40;99.90
6421;DHT22;3243;50.958;7.012;2022-09-21T00:06:16;9.40;99.90
6421;DHT22;3243;50.958;7.012;2022-09-21T00:08:45;9.30;99.90
6421;DHT22;3243;50.958;7.012;2022-09-21T00:11:18;9.30;99.90
6421;DHT22;3243;50.958;7.012;2022-09-21T00:16:14;9.30;99.90
6421;DHT22;3243;50.958;7.012;2022-09-21T00:21:12;9.20;99.90
6421;DHT22;3243;50.958;7.012;2022-09-21T00:23:40;9.20;99.90
6421;DHT22;3243;50.958;7.012;2022-09-21T00:26:13;9.20;99.90
6421;DHT22;3243;50.958;7.012;2022-09-21T00:28:40;9.20;99.90
6421;DHT22;3243;50.958;7.012;2022-09-21T00:31:10;9.10;99.90
6421;DHT22;3243;50.958;7.012;2022-09-21T00:36:07;9.10;99.90
6421;DHT22;3243;50.958;7.012;2022-09-21T00:38:35;9.10;99.90
6421;DHT22;3243;50.958;7.012;2022-09-21T00:41:03;9.10;99.90
6421;DHT22;3243;50.958;7.012;2022-09-21T00:43:36;9.10;99.90
6421;DHT22;3243;50.958;7.012;2022-09-21T00:46:07;9.00;99.90
6421;DHT22;3243;50.958;7.012;2022-09-21T00:48:39;9.00;99.90
6421;DHT22;3243;50.958;7.012;2022-09-21T00:51:07;9.00;99.90
6421;DHT22;3243;50.958;7.012;2022-09-21T00:53:35;9.00;99.90
6421;DHT22;3243;50.958;7.012;2022-09-21T00:56:04;9.00;99.90
6421;DHT22;3243;50.958;7.012;2022-09-21T00:58:39;9.00;99.90
6421;DHT22;3243;50.958;7.012;2022-09-21T01:01:10;8.90;99.90
6421;DHT22;3243;50.958;7.012;2022-09-21T01:03:38;8.90;99.90
6421;DHT22;3243;50.958;7.012;2022-09-21T01:08:32;8.80;99.90
6421;DHT22;3243;50.958;7.012;2022-09-21T01:13:55;8.80;99.90
6421;DHT22;3243;50.958;7.012;2022-09-21T01:16:47;8.70;99.90
6421;DHT22;3243;50.958;7.012;2022-09-21T01:25:27;8.70;99.90
6421;DHT22;3243;50.958;7.012;2022-09-21T01:30:51;8.60;99.90
6421;DHT22;3243;50.958;7.012;2022-09-21T01:33:26;8.60;99.90
6421;DHT22;3243;50.958;7.012;2022-09-21T01:36:02;8.60;99.90
6421;DHT22;3243;50.958;7.012;2022-09-21T01:38:37;8.60;99.90
6421;DHT22;3243;50.958;7.012;2022-09-21T01:41:07;8.50;99.90
6421;DHT22;3243;50.958;7.012;2022-09-21T01:43:42;8.40;99.90
6421;DHT22;3243;50.958;7.012;2022-09-21T01:46:16;8.40;99.90
6421;DHT22;3243;50.958;7.012;2022-09-21T01:48:46;8.40;99.90
6421;DHT22;3243;50.958;7.012;2022-09-21T01:51:15;8.40;99.90
6421;DHT22;3243;50.958;7.012;2022-09-21T01:53:47;8.40;99.90
6421;DHT22;3243;50.958;7.012;2022-09-21T01:56:31;8.30;99.90
6421;DHT22;3243;50.958;7.012;2022-09-21T02:02:01;8.30;99.90
6421;DHT22;3243;50.958;7.012;2022-09-21T02:04:30;8.20;99.90
6421;DHT22;3243;50.958;7.012;2022-09-21T02:07:01;8.20;99.90
6421;DHT22;3243;50.958;7.012;2022-09-21T02:11:55;8.20;99.90
6421;DHT22;3243;50.958;7.012;2022-09-21T02:14:24;8.20;99.90
6421;DHT22;3243;50.958;7.012;2022-09-21T02:17:04;8.10;99.90
6421;DHT22;3243;50.958;7.012;2022-09-21T02:22:17;8.10;99.90
6421;DHT22;3243;50.958;7.012;2022-09-21T02:25:06;8.10;99.90
6421;DHT22;3243;50.958;7.012;2022-09-21T02:30:30;8.10;99.90
6421;DHT22;3243;50.958;7.012;2022-09-21T02:33:23;8.00;99.90
6421;DHT22;3243;50.958;7.012;2022-09-21T02:36:07;8.00;99.90
6421;DHT22;3243;50.958;7.012;2022-09-21T02:38:39;8.00;99.90
6421;DHT22;3243;50.958;7.012;2022-09-21T02:41:23;8.00;99.90
6421;DHT22;3243;50.958;7.012;2022-09-21T02:44:15;8.00;99.90
6421;DHT22;3243;50.958;7.012;2022-09-21T02:46:51;7.90;99.90
6421;DHT22;3243;50.958;7.012;2022-09-21T02:49:26;7.90;99.90
6421;DHT22;3243;50.958;7.012;2022-09-21T02:51:57;7.90;99.90
6421;DHT22;3243;50.958;7.012;2022-09-21T02:54:29;7.90;99.90
6421;DHT22;3243;50.958;7.012;2022-09-21T02:56:57;7.80;99.90
6421;DHT22;3243;50.958;7.012;2022-09-21T02:59:26;7.80;99.90
6421;DHT22;3243;50.958;7.012;2022-09-21T03:01:53;7.80;99.90
6421;DHT22;3243;50.958;7.012;2022-09-21T03:04:22;7.80;99.90
6421;DHT22;3243;50.958;7.012;2022-09-21T03:06:48;7.70;99.90
6421;DHT22;3243;50.958;7.012;2022-09-21T03:09:15;7.70;99.90
6421;DHT22;3243;50.958;7.012;2022-09-21T03:16:37;7.70;99.90
6421;DHT22;3243;50.958;7.012;2022-09-21T03:19:04;7.70;99.90
6421;DHT22;3243;50.958;7.012;2022-09-21T03:26:25;7.70;99.90
6421;DHT22;3243;50.958;7.012;2022-09-21T03:31:20;7.70;99.90
6421;DHT22;3243;50.958;7.012;2022-09-21T03:48:31;7.60;99.90
6421;DHT22;3243;50.958;7.012;2022-09-21T03:50:58;7.60;99.90
6421;DHT22;3243;50.958;7.012;2022-09-21T03:53:25;7.60;99.90
6421;DHT22;3243;50.958;7.012;2022-09-21T03:58:18;7.40;99.90
6421;DHT22;3243;50.958;7.012;2022-09-21T04:03:12;7.50;99.90
6421;DHT22;3243;50.958;7.012;2022-09-21T04:05:39;7.50;99.90
6421;DHT22;3243;50.958;7.012;2022-09-21T04:10:34;7.50;99.90
6421;DHT22;3243;50.958;7.012;2022-09-21T04:15:29;7.40;99.90
6421;DHT22;3243;50.958;7.012;2022-09-21T04:22:51;7.40;99.90
6421;DHT22;3243;50.958;7.012;2022-09-21T04:25:18;7.40;99.90
6421;DHT22;3243;50.958;7.012;2022-09-21T04:27:46;7.40;99.90
6421;DHT22;3243;50.958;7.012;2022-09-21T04:30:14;7.40;99.90
6421;DHT22;3243;50.958;7.012;2022-09-21T04:32:41;7.40;99.90
6421;DHT22;3243;50.958;7.012;2022-09-21T04:35:08;7.30;99.90
6421;DHT22;3243;50.958;7.012;2022-09-21T04:40:03;7.20;99.90
6421;DHT22;3243;50.958;7.012;2022-09-21T04:42:30;7.10;99.90
6421;DHT22;3243;50.958;7.012;2022-09-21T04:44:56;7.20;99.90
6421;DHT22;3243;50.958;7.012;2022-09-21T04:47:23;7.20;99.90
6421;DHT22;3243;50.958;7.012;2022-09-21T04:49:50;7.10;99.90
6421;DHT22;3243;50.958;7.012;2022-09-21T04:52:18;7.20;99.90
6421;DHT22;3243;50.958;7.012;2022-09-21T04:57:13;7.20;99.90
6421;DHT22;3243;50.958;7.012;2022-09-21T04:59:40;7.10;99.90
6421;DHT22;3243;50.958;7.012;2022-09-21T05:09:29;7.00;99.90
6421;DHT22;3243;50.958;7.012;2022-09-21T05:12:15;7.10;99.90
6421;DHT22;3243;50.958;7.012;2022-09-21T05:17:11;7.10;99.90
6421;DHT22;3243;50.958;7.012;2022-09-21T05:19:38;7.10;99.90
6421;DHT22;3243;50.958;7.012;2022-09-21T05:22:05;7.10;99.90
6421;DHT22;3243;50.958;7.012;2022-09-21T05:26:59;7.20;99.90
6421;DHT22;3243;50.958;7.012;2022-09-21T05:31:57;7.10;99.90
6421;DHT22;3243;50.958;7.012;2022-09-21T05:37:09;7.20;99.90
6421;DHT22;3243;50.958;7.012;2022-09-21T05:42:05;7.30;99.90
6421;DHT22;3243;50.958;7.012;2022-09-21T05:52:37;7.40;99.90
6421;DHT22;3243;50.958;7.012;2022-09-21T05:55:41;7.50;99.90
6421;DHT22;3243;50.958;7.012;2022-09-21T05:58:14;7.50;99.90
6421;DHT22;3243;50.958;7.012;2022-09-21T06:01:01;7.40;99.90
6421;DHT22;3243;50.958;7.012;2022-09-21T06:03:31;7.50;99.90
6421;DHT22;3243;50.958;7.012;2022-09-21T06:05:58;7.50;99.90
6421;DHT22;3243;50.958;7.012;2022-09-21T06:18:14;7.70;99.90
6421;DHT22;3243;50.958;7.012;2022-09-21T06:20:44;7.70;99.90
6421;DHT22;3243;50.958;7.012;2022-09-21T06:23:12;7.80;99.90
6421;DHT22;3243;50.958;7.012;2022-09-21T06:28:07;7.80;99.90
6421;DHT22;3243;50.958;7.012;2022-09-21T06:30:36;7.90;99.90
6421;DHT22;3243;50.958;7.012;2022-09-21T06:33:04;7.90;99.90
6421;DHT22;3243;50.958;7.012;2022-09-21T06:35:33;8.00;99.90
6421;DHT22;3243;50.958;7.012;2022-09-21T06:38:01;8.00;99.90
6421;DHT22;3243;50.958;7.012;2022-09-21T06:40:29;8.10;99.90
6421;DHT22;3243;50.958;7.012;2022-09-21T06:42:57;8.10;99.90
6421;DHT22;3243;50.958;7.012;2022-09-21T06:45:25;8.20;99.90
6421;DHT22;3243;50.958;7.012;2022-09-21T06:50:19;8.20;99.90
6421;DHT22;3243;50.958;7.012;2022-09-21T06:57:41;8.40;99.90
6421;DHT22;3243;50.958;7.012;2022-09-21T07:00:10;8.50;99.90
6421;DHT22;3243;50.958;7.012;2022-09-21T07:12:41;8.80;99.90
6421;DHT22;3243;50.958;7.012;2022-09-21T07:17:37;8.90;99.90
6421;DHT22;3243;50.958;7.012;2022-09-21T07:20:04;9.00;99.90
6421;DHT22;3243;50.958;7.012;2022-09-21T07:27:28;9.20;99.90
6421;DHT22;3243;50.958;7.012;2022-09-21T07:32:22;9.30;99.90
6421;DHT22;3243;50.958;7.012;2022-09-21T07:34:49;9.40;99.90
6421;DHT22;3243;50.958;7.012;2022-09-21T07:39:43;9.60;99.90
6421;DHT22;3243;50.958;7.012;2022-09-21T07:44:36;9.80;99.90
6421;DHT22;3243;50.958;7.012;2022-09-21T07:47:03;9.90;99.90
6421;DHT22;3243;50.958;7.012;2022-09-21T07:49:30;10.00;99.90
6421;DHT22;3243;50.958;7.012;2022-09-21T07:51:56;10.10;99.90
6421;DHT22;3243;50.958;7.012;2022-09-21T07:54:30;10.20;99.90
6421;DHT22;3243;50.958;7.012;2022-09-21T07:56:59;10.30;99.90
6421;DHT22;3243;50.958;7.012;2022-09-21T07:59:44;10.40;99.90
6421;DHT22;3243;50.958;7.012;2022-09-21T08:02:11;10.60;99.90
6421;DHT22;3243;50.958;7.012;2022-09-21T08:12:00;11.00;99.90
6421;DHT22;3243;50.958;7.012;2022-09-21T08:24:24;11.40;99.90
6421;DHT22;3243;50.958;7.012;2022-09-21T08:26:53;11.50;99.90
6421;DHT22;3243;50.958;7.012;2022-09-21T08:29:23;11.60;99.90
6421;DHT22;3243;50.958;7.012;2022-09-21T08:31:50;11.70;99.90
6421;DHT22;3243;50.958;7.012;2022-09-21T08:34:18;11.70;99.90
6421;DHT22;3243;50.958;7.012;2022-09-21T08:36:45;11.80;99.90
6421;DHT22;3243;50.958;7.012;2022-09-21T08:44:17;11.90;99.90
6421;DHT22;3243;50.958;7.012;2022-09-21T08:46:49;12.00;1.00
6421;DHT22;3243;50.958;7.012;2022-09-21T08:49:23;12.10;1.00
6421;DHT22;3243;50.958;7.012;2022-09-21T08:51:58;12.10;99.90
6421;DHT22;3243;50.958;7.012;2022-09-21T08:56:58;12.30;99.90
6421;DHT22;3243;50.958;7.012;2022-09-21T08:59:33;12.40;99.90
6421;DHT22;3243;50.958;7.012;2022-09-21T09:07:23;12.60;99.90
6421;DHT22;3243;50.958;7.012;2022-09-21T09:21:04;12.80;99.90
6421;DHT22;3243;50.958;7.012;2022-09-21T09:23:37;12.90;99.90
6421;DHT22;3243;50.958;7.012;2022-09-21T09:26:11;12.90;99.90
6421;DHT22;3243;50.958;7.012;2022-09-21T09:28:46;13.00;99.90
6421;DHT22;3243;50.958;7.012;2022-09-21T09:31:23;13.10;99.90
6421;DHT22;3243;50.958;7.012;2022-09-21T09:36:27;13.30;99.90
6421;DHT22;3243;50.958;7.012;2022-09-21T09:39:15;13.30;1.00
6421;DHT22;3243;50.958;7.012;2022-09-21T09:42:13;13.40;1.00
6421;DHT22;3243;50.958;7.012;2022-09-21T09:52:36;13.60;99.90
6421;DHT22;3243;50.958;7.012;2022-09-21T09:55:23;13.60;99.90
6421;DHT22;3243;50.958;7.012;2022-09-21T09:57:54;13.70;99.90
6421;DHT22;3243;50.958;7.012;2022-09-21T10:02:53;13.90;99.90
6421;DHT22;3243;50.958;7.012;2022-09-21T10:05:30;13.90;99.90
6421;DHT22;3243;50.958;7.012;2022-09-21T10:07:57;13.80;99.90
6421;DHT22;3243;50.958;7.012;2022-09-21T10:10:40;13.90;99.90
6421;DHT22;3243;50.958;7.012;2022-09-21T10:13:35;14.00;1.00
6421;DHT22;3243;50.958;7.012;2022-09-21T10:18:56;14.10;73.80
6421;DHT22;3243;50.958;7.012;2022-09-21T10:21:31;14.10;1.00
6421;DHT22;3243;50.958;7.012;2022-09-21T10:24:02;14.00;1.00
6421;DHT22;3243;50.958;7.012;2022-09-21T10:26:31;14.10;1.00
6421;DHT22;3243;50.958;7.012;2022-09-21T10:31:59;14.30;99.90
6421;DHT22;3243;50.958;7.012;2022-09-21T10:34:28;14.40;1.00
6421;DHT22;3243;50.958;7.012;2022-09-21T10:36:58;14.60;99.90
6421;DHT22;3243;50.958;7.012;2022-09-21T10:39:34;14.80;99.90
6421;DHT22;3243;50.958;7.012;2022-09-21T10:42:17;15.00;99.90
6421;DHT22;3243;50.958;7.012;2022-09-21T10:45:14;15.00;99.90
6421;DHT22;3243;50.958;7.012;2022-09-21T10:47:46;14.90;99.90
6421;DHT22;3243;50.958;7.012;2022-09-21T10:55:59;14.80;99.90
6421;DHT22;3243;50.958;7.012;2022-09-21T11:01:52;15.00;99.90
6421;DHT22;3243;50.958;7.012;2022-09-21T11:04:42;15.20;99.90
6421;DHT22;3243;50.958;7.012;2022-09-21T11:07:18;15.30;99.90
6421;DHT22;3243;50.958;7.012;2022-09-21T11:09:57;15.30;99.90
6421;DHT22;3243;50.958;7.012;2022-09-21T11:17:45;15.50;99.90
6421;DHT22;3243;50.958;7.012;2022-09-21T11:25:45;15.50;99.90
6421;DHT22;3243;50.958;7.012;2022-09-21T11:28:36;15.50;99.90
6421;DHT22;3243;50.958;7.012;2022-09-21T11:31:29;15.50;99.90
6421;DHT22;3243;50.958;7.012;2022-09-21T11:45:00;15.80;99.90
6421;DHT22;3243;50.958;7.012;2022-09-21T11:47:52;15.80;99.90
6421;DHT22;3243;50.958;7.012;2022-09-21T11:58:26;16.00;99.90
6421;DHT22;3243;50.958;7.012;2022-09-21T12:21:21;16.60;99.90
6421;DHT22;3243;50.958;7.012;2022-09-21T12:26:42;16.80;99.90
6421;DHT22;3243;50.958;7.012;2022-09-21T12:29:39;16.90;99.90
6421;DHT22;3243;50.958;7.012;2022-09-21T12:34:52;17.00;99.90
6421;DHT22;3243;50.958;7.012;2022-09-21T12:37:37;17.10;99.90
6421;DHT22;3243;50.958;7.012;2022-09-21T12:50:24;17.10;99.90
6421;DHT22;3243;50.958;7.012;2022-09-21T12:52:51;17.10;99.90
6421;DHT22;3243;50.958;7.012;2022-09-21T12:55:23;17.10;99.90
6421;DHT22;3243;50.958;7.012;2022-09-21T13:00:58;17.30;99.90
6421;DHT22;3243;50.958;7.012;2022-09-21T13:03:40;17.40;99.90
6421;DHT22;3243;50.958;7.012;2022-09-21T13:09:17;17.70;99.90
6421;DHT22;3243;50.958;7.012;2022-09-21T13:12:02;17.70;99.90
6421;DHT22;3243;50.958;7.012;2022-09-21T13:14:35;17.70;99.90
6421;DHT22;3243;50.958;7.012;2022-09-21T13:17:04;17.80;99.90
6421;DHT22;3243;50.958;7.012;2022-09-21T13:19:33;17.70;99.90
6421;DHT22;3243;50.958;7.012;2022-09-21T13:22:22;17.70;99.90
6421;DHT22;3243;50.958;7.012;2022-09-21T13:31:50;17.70;99.90
6421;DHT22;3243;50.958;7.012;2022-09-21T13:34:18;17.70;99.90
6421;DHT22;3243;50.958;7.012;2022-09-21T13:39:43;18.10;99.90
6421;DHT22;3243;50.958;7.012;2022-09-21T13:45:47;18.30;99.90
6421;DHT22;3243;50.958;7.012;2022-09-21T13:47:50;18.60;99.90
6421;DHT22;3243;50.958;7.012;2022-09-21T13:53:06;18.80;99.90
6421;DHT22;3243;50.958;7.012;2022-09-21T13:55:47;18.40;99.90
6421;DHT22;3243;50.958;7.012;2022-09-21T13:58:33;13.90;99.90
6421;DHT22;3243;50.958;7.012;2022-09-21T14:01:19;17.90;99.90
6421;DHT22;3243;50.958;7.012;2022-09-21T14:04:26;17.90;99.90
6421;DHT22;3243;50.958;7.012;2022-09-21T14:06:56;17.80;99.90
6421;DHT22;3243;50.958;7.012;2022-09-21T14:09:29;17.90;99.90
6421;DHT22;3243;50.958;7.012;2022-09-21T14:12:01;17.90;99.90
6421;DHT22;3243;50.958;7.012;2022-09-21T14:14:34;17.80;99.90
6421;DHT22;3243;50.958;7.012;2022-09-21T14:17:37;17.70;99.90
6421;DHT22;3243;50.958;7.012;2022-09-21T14:20:28;17.70;99.90
6421;DHT22;3243;50.958;7.012;2022-09-21T14:31:02;17.80;99.90
6421;DHT22;3243;50.958;7.012;2022-09-21T14:33:34;17.80;99.90
6421;DHT22;3243;50.958;7.012;2022-09-21T14:36:07;17.90;99.90
6421;DHT22;3243;50.958;7.012;2022-09-21T14:38:46;17.80;99.90
6421;DHT22;3243;50.958;7.012;2022-09-21T14:41:22;17.80;99.90
6421;DHT22;3243;50.958;7.012;2022-09-21T14:43:53;17.60;99.90
6421;DHT22;3243;50.958;7.012;2022-09-21T14:46:38;17.70;99.90
6421;DHT22;3243;50.958;7.012;2022-09-21T15:00:44;17.60;99.90
6421;DHT22;3243;50.958;7.012;2022-09-21T15:12:13;17.00;99.90
6421;DHT22;3243;50.958;7.012;2022-09-21T15:14:46;16.90;99.90
6421;DHT22;3243;50.958;7.012;2022-09-21T15:22:20;16.90;99.90
6421;DHT22;3243;50.958;7.012;2022-09-21T15:24:53;16.90;99.90
6421;DHT22;3243;50.958;7.012;2022-09-21T15:27:24;16.80;99.90
6421;DHT22;3243;50.958;7.012;2022-09-21T15:29:54;16.80;99.90
6421;DHT22;3243;50.958;7.012;2022-09-21T15:32:36;16.70;99.90
6421;DHT22;3243;50.958;7.012;2022-09-21T15:35:17;16.70;99.90
6421;DHT22;3243;50.958;7.012;2022-09-21T15:40:34;16.70;99.90
6421;DHT22;3243;50.958;7.012;2022-09-21T15:45:50;16.60;99.90
6421;DHT22;3243;50.958;7.012;2022-09-21T15:48:17;16.60;99.90
6421;DHT22;3243;50.958;7.012;2022-09-21T15:53:20;16.40;99.90
6421;DHT22;3243;50.958;7.012;2022-09-21T15:55:48;16.40;99.90
6421;DHT22;3243;50.958;7.012;2022-09-21T15:58:30;16.30;99.90
6421;DHT22;3243;50.958;7.012;2022-09-21T16:01:09;16.20;99.90
6421;DHT22;3243;50.958;7.012;2022-09-21T16:03:37;16.00;99.90
6421;DHT22;3243;50.958;7.012;2022-09-21T16:06:25;15.90;99.90
6421;DHT22;3243;50.958;7.012;2022-09-21T16:08:52;15.80;99.90
6421;DHT22;3243;50.958;7.012;2022-09-21T16:14:13;15.80;99.90
6421;DHT22;3243;50.958;7.012;2022-09-21T16:20:23;15.90;99.90
6421;DHT22;3243;50.958;7.012;2022-09-21T16:22:39;15.80;99.90
6421;DHT22;3243;50.958;7.012;2022-09-21T16:25:34;15.80;99.90
6421;DHT22;3243;50.958;7.012;2022-09-21T16:38:51;15.40;99.90
6421;DHT22;3243;50.958;7.012;2022-09-21T16:41:23;15.40;99.90
6421;DHT22;3243;50.958;7.012;2022-09-21T16:46:22;15.20;99.90
6421;DHT22;3243;50.958;7.012;2022-09-21T16:51:21;15.00;99.90
6421;DHT22;3243;50.958;7.012;2022-09-21T16:56:18;14.70;99.90
6421;DHT22;3243;50.958;7.012;2022-09-21T16:58:45;14.50;99.90
6421;DHT22;3243;50.958;7.012;2022-09-21T17:01:15;14.40;99.90
6421;DHT22;3243;50.958;7.012;2022-09-21T17:06:20;14.10;99.90
6421;DHT22;3243;50.958;7.012;2022-09-21T17:08:47;13.90;99.90
6421;DHT22;3243;50.958;7.012;2022-09-21T17:11:15;13.80;99.90
6421;DHT22;3243;50.958;7.012;2022-09-21T17:16:17;13.50;1.00
6421;DHT22;3243;50.958;7.012;2022-09-21T17:21:13;13.20;35.00
6421;DHT22;3243;50.958;7.012;2022-09-21T17:23:40;13.10;1.00
6421;DHT22;3243;50.958;7.012;2022-09-21T17:26:12;13.00;1.00
6421;DHT22;3243;50.958;7.012;2022-09-21T17:28:43;12.90;1.00
6421;DHT22;3243;50.958;7.012;2022-09-21T17:31:11;12.80;1.00
6421;DHT22;3243;50.958;7.012;2022-09-21T17:36:12;12.60;66.90
6421;DHT22;3243;50.958;7.012;2022-09-21T17:41:32;12.40;1.00
6421;DHT22;3243;50.958;7.012;2022-09-21T17:44:17;12.40;99.90
6421;DHT22;3243;50.958;7.012;2022-09-21T17:51:51;12.10;99.90
6421;DHT22;3243;50.958;7.012;2022-09-21T18:28:45;11.40;1.00
6421;DHT22;3243;50.958;7.012;2022-09-21T18:34:22;11.30;99.90
6421;DHT22;3243;50.958;7.012;2022-09-21T18:45:35;11.20;99.90
6421;DHT22;3243;50.958;7.012;2022-09-21T18:58:31;11.20;99.90
6421;DHT22;3243;50.958;7.012;2022-09-21T19:00:58;11.40;99.90
6421;DHT22;3243;50.958;7.012;2022-09-21T19:28:04;10.90;99.90
6421;DHT22;3243;50.958;7.012;2022-09-21T19:30:37;10.80;99.90
6421;DHT22;3243;50.958;7.012;2022-09-21T19:33:19;10.70;99.90
6421;DHT22;3243;50.958;7.012;2022-09-21T19:36:08;10.60;99.90
6421;DHT22;3243;50.958;7.012;2022-09-21T19:38:35;10.60;99.90
6421;DHT22;3243;50.958;7.012;2022-09-21T19:43:46;10.50;99.90
6421;DHT22;3243;50.958;7.012;2022-09-21T19:46:19;10.40;99.90
6421;DHT22;3243;50.958;7.012;2022-09-21T19:48:53;10.40;99.90
6421;DHT22;3243;50.958;7.012;2022-09-21T19:51:34;10.30;99.90
6421;DHT22;3243;50.958;7.012;2022-09-21T19:54:09;10.30;99.90
6421;DHT22;3243;50.958;7.012;2022-09-21T19:56:56;10.30;99.90
6421;DHT22;3243;50.958;7.012;2022-09-21T19:59:42;10.20;99.90
6421;DHT22;3243;50.958;7.012;2022-09-21T20:02:33;10.20;99.90
6421;DHT22;3243;50.958;7.012;2022-09-21T20:15:55;10.00;99.90
6421;DHT22;3243;50.958;7.012;2022-09-21T20:18:48;10.00;99.90
6421;DHT22;3243;50.958;7.012;2022-09-21T20:21:19;10.00;99.90
6421;DHT22;3243;50.958;7.012;2022-09-21T20:23:55;9.90;99.90
6421;DHT22;3243;50.958;7.012;2022-09-21T20:26:25;9.90;99.90
6421;DHT22;3243;50.958;7.012;2022-09-21T20:28:52;9.90;99.90
6421;DHT22;3243;50.958;7.012;2022-09-21T20:31:24;9.90;99.90
6421;DHT22;3243;50.958;7.012;2022-09-21T20:38:45;9.80;99.90
6421;DHT22;3243;50.958;7.012;2022-09-21T20:41:13;9.70;99.90
6421;DHT22;3243;50.958;7.012;2022-09-21T20:43:41;9.70;99.90
6421;DHT22;3243;50.958;7.012;2022-09-21T20:46:09;9.70;99.90
6421;DHT22;3243;50.958;7.012;2022-09-21T20:51:04;9.60;99.90
6421;DHT22;3243;50.958;7.012;2022-09-21T20:53:32;9.60;99.90
6421;DHT22;3243;50.958;7.012;2022-09-21T20:55:59;9.60;99.90
6421;DHT22;3243;50.958;7.012;2022-09-21T20:58:28;9.50;99.90
6421;DHT22;3243;50.958;7.012;2022-09-21T21:01:02;9.50;99.90
6421;DHT22;3243;50.958;7.012;2022-09-21T21:06:13;9.50;99.90
6421;DHT22;3243;50.958;7.012;2022-09-21T21:08:40;9.50;99.90
6421;DHT22;3243;50.958;7.012;2022-09-21T21:13:36;9.40;99.90
6421;DHT22;3243;50.958;7.012;2022-09-21T21:16:03;9.30;99.90
6421;DHT22;3243;50.958;7.012;2022-09-21T21:18:40;9.30;99.90
6421;DHT22;3243;50.958;7.012;2022-09-21T21:23:34;9.30;99.90
6421;DHT22;3243;50.958;7.012;2022-09-21T21:26:20;9.30;99.90
6421;DHT22;3243;50.958;7.012;2022-09-21T21:29:07;9.30;99.90
6421;DHT22;3243;50.958;7.012;2022-09-21T21:34:01;9.20;99.90
6421;DHT22;3243;50.958;7.012;2022-09-21T21:38:54;9.20;99.90
6421;DHT22;3243;50.958;7.012;2022-09-21T21:41:21;9.10;99.90
6421;DHT22;3243;50.958;7.012;2022-09-21T21:43:48;9.10;99.90
6421;DHT22;3243;50.958;7.012;2022-09-21T21:46:15;9.10;99.90
6421;DHT22;3243;50.958;7.012;2022-09-21T21:51:11;9.10;99.90
6421;DHT22;3243;50.958;7.012;2022-09-21T21:53:38;9.10;99.90
6421;DHT22;3243;50.958;7.012;2022-09-21T21:58:36;9.00;99.90
6421;DHT22;3243;50.958;7.012;2022-09-21T22:01:17;9.00;99.90
6421;DHT22;3243;50.958;7.012;2022-09-21T22:03:47;9.00;99.90
6421;DHT22;3243;50.958;7.012;2022-09-21T22:06:17;9.00;99.90
6421;DHT22;3243;50.958;7.012;2022-09-21T22:08:44;9.00;99.90
6421;DHT22;3243;50.958;7.012;2022-09-21T22:11:10;8.90;99.90
6421;DHT22;3243;50.958;7.012;2022-09-21T22:13:38;8.90;99.90
6421;DHT22;3243;50.958;7.012;2022-09-21T22:16:10;8.90;99.90
6421;DHT22;3243;50.958;7.012;2022-09-21T22:18:38;8.90;99.90
6421;DHT22;3243;50.958;7.012;2022-09-21T22:28:35;8.80;99.90
6421;DHT22;3243;50.958;7.012;2022-09-21T22:31:06;8.80;99.90
6421;DHT22;3243;50.958;7.012;2022-09-21T22:36:04;8.80;99.90
6421;DHT22;3243;50.958;7.012;2022-09-21T22:38:32;8.80;99.90
6421;DHT22;3243;50.958;7.012;2022-09-21T22:41:11;8.80;99.90
6421;DHT22;3243;50.958;7.012;2022-09-21T22:43:39;8.70;99.90
6421;DHT22;3243;50.958;7.012;2022-09-21T22:46:06;8.70;99.90
6421;DHT22;3243;50.958;7.012;2022-09-21T22:48:33;8.70;99.90
6421;DHT22;3243;50.958;7.012;2022-09-21T22:51:01;8.70;99.90
6421;DHT22;3243;50.958;7.012;2022-09-21T22:53:28;8.60;99.90
6421;DHT22;3243;50.958;7.012;2022-09-21T22:56:10;8.60;99.90
6421;DHT22;3243;50.958;7.012;2022-09-21T22:58:39;8.60;99.90
6421;DHT22;3243;50.958;7.012;2022-09-21T23:01:18;8.60;99.90
6421;DHT22;3243;50.958;7.012;2022-09-21T23:03:50;8.60;99.90
6421;DHT22;3243;50.958;7.012;2022-09-21T23:06:19;8.50;99.90
6421;DHT22;3243;50.958;7.012;2022-09-21T23:08:48;8.50;99.90
6421;DHT22;3243;50.958;7.012;2022-09-21T23:11:18;8.50;99.90
6421;DHT22;3243;50.958;7.012;2022-09-21T23:13:45;8.50;99.90
6421;DHT22;3243;50.958;7.012;2022-09-21T23:16:13;8.50;99.90
6421;DHT22;3243;50.958;7.012;2022-09-21T23:18:42;8.50;99.90
6421;DHT22;3243;50.958;7.012;2022-09-21T23:21:14;8.50;99.90
6421;DHT22;3243;50.958;7.012;2022-09-21T23:26:16;8.50;99.90
6421;DHT22;3243;50.958;7.012;2022-09-21T23:28:49;8.40;99.90
6421;DHT22;3243;50.958;7.012;2022-09-21T23:31:16;8.40;99.90
6421;DHT22;3243;50.958;7.012;2022-09-21T23:33:49;8.40;99.90
6421;DHT22;3243;50.958;7.012;2022-09-21T23:36:18;8.30;99.90
6421;DHT22;3243;50.958;7.012;2022-09-21T23:38:46;8.30;99.90
6421;DHT22;3243;50.958;7.012;2022-09-21T23:41:19;8.30;99.90
6421;DHT22;3243;50.958;7.012;2022-09-21T23:43:46;8.30;99.90
6421;DHT22;3243;50.958;7.012;2022-09-21T23:46:17;8.30;99.90
6421;DHT22;3243;50.958;7.012;2022-09-21T23:48:44;8.30;99.90
6421;DHT22;3243;50.958;7.012;2022-09-21T23:51:12;8.30;99.90
6421;DHT22;3243;50.958;7.012;2022-09-21T23:53:39;8.30;99.90
6421;DHT22;3243;50.958;7.012;2022-09-21T23:56:07;8.30;99.90
